Time;durP1;ratioP1;P1;durP2;ratioP2;P2;SDS_P1;SDS_P2;PMS_P1;PMS_P2;Temp;Humidity;BMP_temperature;BMP_pressure;BME280_temperature;BME280_humidity;BME280_pressure;Samples;Min_cycle;Max_cycle;Signal;HPM_P1;HPM_P2
2024/01/16 00:00:19;;;;;;;2.13;1.10;;;;;;;-1.99;76.50;98239.31;5072950;28;20557;-60
2024/01/16 00:02:47;;;;;;;1.80;1.00;;;;;;;-1.98;75.92;98246.06;5067528;28;20193;-59
2024/01/16 00:05:15;;;;;;;1.80;1.20;;;;;;;-1.95;75.76;98247.78;5073216;28;20244;-60
2024/01/16 00:07:43;;;;;;;2.33;1.17;;;;;;;-1.95;76.17;98250.28;5072860;28;20205;-60
2024/01/16 00:10:11;;;;;;;2.47;1.23;;;;;;;-1.98;75.24;98261.19;5071974;28;20228;-60
2024/01/16 00:12:40;;;;;;;1.50;0.77;;;;;;;-1.98;76.04;98276.34;5070663;28;20312;-60
2024/01/16 00:15:09;;;;;;;2.20;1.00;;;;;;;-1.98;75.85;98280.53;5067358;28;20251;-60
2024/01/16 00:17:38;;;;;;;1.37;0.97;;;;;;;-1.98;75.98;98286.44;5072564;28;20287;-60
2024/01/16 00:20:07;;;;;;;3.73;0.90;;;;;;;-1.98;76.10;98280.53;5070437;28;20617;-59
2024/01/16 00:22:35;;;;;;;2.10;1.00;;;;;;;-1.97;75.97;98302.41;5072492;28;20591;-59
2024/01/16 00:25:03;;;;;;;2.70;1.00;;;;;;;-2.01;75.91;98295.66;5071894;28;20206;-59
2024/01/16 00:27:30;;;;;;;3.73;1.03;;;;;;;-2.02;75.94;98304.91;5065598;28;20292;-60
2024/01/16 00:29:58;;;;;;;1.93;1.00;;;;;;;-2.01;75.83;98308.28;5061606;28;20831;-60
2024/01/16 00:32:26;;;;;;;2.40;1.07;;;;;;;-2.00;75.83;98312.47;5072613;28;20741;-58
2024/01/16 00:34:56;;;;;;;1.80;1.07;;;;;;;-1.99;76.39;98320.09;5071279;28;20201;-62
2024/01/16 00:37:24;;;;;;;1.33;1.03;;;;;;;-1.95;76.43;98326.00;5070263;28;20676;-61
2024/01/16 00:39:52;;;;;;;2.53;1.07;;;;;;;-1.96;76.30;98335.22;5070022;28;20933;-60
2024/01/16 00:42:20;;;;;;;2.30;1.27;;;;;;;-1.92;75.54;98337.78;5072465;28;20653;-59
2024/01/16 00:44:48;;;;;;;1.30;1.20;;;;;;;-1.96;75.82;98340.28;5072381;28;20288;-59
2024/01/16 00:47:16;;;;;;;2.90;1.27;;;;;;;-1.98;76.11;98356.25;5072865;28;20201;-60
2024/01/16 00:49:43;;;;;;;1.23;1.00;;;;;;;-1.98;76.44;98357.09;5071961;28;20755;-60
2024/01/16 00:52:13;;;;;;;2.13;1.20;;;;;;;-1.96;76.29;98367.19;5071803;28;20266;-60
2024/01/16 00:54:41;;;;;;;3.47;1.30;;;;;;;-1.94;76.79;98378.16;5070568;28;20209;-60
2024/01/16 00:57:09;;;;;;;1.90;1.37;;;;;;;-1.90;76.43;98384.09;5070627;28;20194;-61
2024/01/16 00:59:37;;;;;;;1.23;0.97;;;;;;;-1.88;76.08;98379.91;5072164;28;20269;-59
2024/01/16 01:02:06;;;;;;;1.23;1.13;;;;;;;-1.90;75.97;98384.09;5072602;28;20274;-60
2024/01/16 01:04:34;;;;;;;1.27;1.03;;;;;;;-1.88;76.38;98407.66;5071966;28;20602;-60
2024/01/16 01:07:02;;;;;;;1.23;1.10;;;;;;;-1.92;75.93;98395.84;5071064;28;20633;-59
2024/01/16 01:09:33;;;;;;;2.37;0.90;;;;;;;-1.91;75.62;98384.91;5068610;28;20302;-63
2024/01/16 01:12:01;;;;;;;2.13;1.20;;;;;;;-1.89;75.26;98403.44;5069717;28;20209;-59
2024/01/16 01:14:30;;;;;;;1.10;0.80;;;;;;;-1.97;75.59;98388.22;5071723;28;20197;-59
2024/01/16 01:16:59;;;;;;;1.83;0.90;;;;;;;-2.01;74.68;98387.34;5072256;28;20670;-61
2024/01/16 01:19:27;;;;;;;1.97;0.80;;;;;;;-2.06;74.94;98390.63;5071520;28;20201;-59
2024/01/16 01:21:55;;;;;;;1.83;1.13;;;;;;;-2.11;74.13;98392.25;5071726;28;20209;-60
2024/01/16 01:24:23;;;;;;;1.43;0.90;;;;;;;-2.16;74.53;98392.22;5068927;28;20201;-59
2024/01/16 01:26:52;;;;;;;1.00;0.70;;;;;;;-2.20;74.51;98395.53;5071794;28;20235;-61
2024/01/16 01:29:20;;;;;;;4.50;0.80;;;;;;;-2.17;74.46;98405.66;5068196;28;20197;-61
2024/01/16 01:31:48;;;;;;;0.97;0.73;;;;;;;-2.18;74.19;98408.97;5071261;28;20201;-59
2024/01/16 01:34:16;;;;;;;2.03;1.13;;;;;;;-2.19;74.07;98414.88;5071354;28;20691;-60
2024/01/16 01:36:44;;;;;;;1.13;0.87;;;;;;;-2.13;74.58;98425.06;5071664;28;20706;-59
2024/01/16 01:39:12;;;;;;;2.53;1.10;;;;;;;-2.11;74.03;98430.09;5071076;28;20237;-59
2024/01/16 01:41:41;;;;;;;3.00;0.80;;;;;;;-2.10;74.08;98417.53;5065240;28;20216;-60
2024/01/16 01:44:15;;;;;;;2.00;1.00;;;;;;;-2.09;74.34;98434.34;5070832;28;20197;-59
2024/01/16 01:46:46;;;;;;;1.70;1.20;;;;;;;-2.05;74.76;98447.84;5065004;28;20205;-60
2024/01/16 01:49:16;;;;;;;1.63;1.20;;;;;;;-2.04;74.79;98447.00;5071213;28;20335;-60
2024/01/16 01:51:45;;;;;;;3.57;1.47;;;;;;;-2.04;75.26;98447.88;5070577;28;20197;-60
2024/01/16 01:54:13;;;;;;;1.77;1.20;;;;;;;-2.03;75.14;98453.75;5066317;28;20252;-60
2024/01/16 01:56:45;;;;;;;1.80;1.67;;;;;;;-2.07;75.38;98452.03;5071508;28;20627;-61
2024/01/16 01:59:14;;;;;;;1.30;1.00;;;;;;;-2.09;75.36;98467.16;5065706;28;20205;-58
2024/01/16 02:01:43;;;;;;;1.70;1.27;;;;;;;-2.12;75.08;98468.78;5069500;28;20225;-61
2024/01/16 02:04:13;;;;;;;1.70;1.10;;;;;;;-2.15;74.86;98476.31;5064535;28;20348;-61
2024/01/16 02:06:42;;;;;;;2.53;1.27;;;;;;;-2.19;74.53;98475.41;5068807;28;20232;-61
2024/01/16 02:09:10;;;;;;;2.07;1.13;;;;;;;-2.25;74.06;98482.88;5070062;28;20735;-59
2024/01/16 02:11:37;;;;;;;1.93;0.80;;;;;;;-2.34;73.85;98487.81;5070822;28;20201;-59
2024/01/16 02:14:05;;;;;;;0.93;0.83;;;;;;;-2.39;73.98;98489.41;5070486;28;20217;-61
2024/01/16 02:16:50;;;;;;;1.67;1.00;;;;;;;-2.45;73.75;98497.75;5063891;28;20229;-60
2024/01/16 02:19:18;;;;;;;1.67;0.90;;;;;;;-2.50;73.13;98505.25;5061513;28;20201;-59
2024/01/16 02:21:49;;;;;;;1.70;0.70;;;;;;;-2.54;73.06;98508.53;5068474;28;20212;-59
2024/01/16 02:24:20;;;;;;;1.00;0.70;;;;;;;-2.60;72.11;98510.13;5070784;28;20717;-60
2024/01/16 02:26:48;;;;;;;2.10;0.80;;;;;;;-2.63;71.92;98500.81;5063932;28;20206;-60
2024/01/16 02:29:16;;;;;;;0.70;0.60;;;;;;;-2.67;71.62;98516.72;5070181;28;20205;-60
2024/01/16 02:31:44;;;;;;;0.90;0.80;;;;;;;-2.69;71.26;98525.91;5070067;28;20193;-63
2024/01/16 02:34:13;;;;;;;0.70;0.70;;;;;;;-2.73;70.37;98532.59;5066248;28;20633;-60
2024/01/16 02:36:41;;;;;;;1.00;0.83;;;;;;;-2.72;70.35;98538.50;5053375;28;20201;-57
2024/01/16 02:39:09;;;;;;;1.63;0.80;;;;;;;-2.70;70.04;98546.91;5058192;28;20632;-61
2024/01/16 02:41:39;;;;;;;1.30;0.90;;;;;;;-2.71;68.94;98548.59;5070346;28;20227;-61
2024/01/16 02:44:07;;;;;;;1.10;0.70;;;;;;;-2.69;68.96;98552.00;5069983;28;20197;-62
2024/01/16 02:46:35;;;;;;;1.27;0.70;;;;;;;-2.70;68.35;98555.31;5066127;28;20244;-60
2024/01/16 02:49:03;;;;;;;1.90;0.73;;;;;;;-2.69;67.87;98562.09;5065529;28;20245;-61
2024/01/16 02:51:31;;;;;;;1.00;0.70;;;;;;;-2.70;68.11;98564.56;5070305;28;20207;-61
2024/01/16 02:53:59;;;;;;;0.60;0.60;;;;;;;-2.70;67.79;98564.56;5070392;28;20812;-60
2024/01/16 02:56:27;;;;;;;1.47;0.80;;;;;;;-2.77;66.93;98556.03;5064921;28;20209;-60
2024/01/16 02:58:56;;;;;;;2.00;0.60;;;;;;;-2.80;67.95;98572.78;5072556;28;20251;-60
2024/01/16 03:01:24;;;;;;;1.43;0.77;;;;;;;-2.80;68.45;98568.63;5074325;28;20256;-59
2024/01/16 03:03:52;;;;;;;1.80;0.90;;;;;;;-2.78;68.15;98576.19;5072892;28;20204;-60
2024/01/16 03:06:24;;;;;;;3.60;0.80;;;;;;;-2.79;68.00;98579.53;5074437;28;20197;-59
2024/01/16 03:08:52;;;;;;;1.80;0.80;;;;;;;-2.82;68.16;98584.53;5074031;28;20311;-60
2024/01/16 03:11:20;;;;;;;1.00;0.80;;;;;;;-2.83;68.01;98586.19;5072195;28;20205;-60
2024/01/16 03:13:49;;;;;;;1.10;1.00;;;;;;;-2.83;68.26;98592.91;5073294;28;20251;-59
2024/01/16 03:16:19;;;;;;;0.67;0.60;;;;;;;-2.85;67.95;98600.44;5074129;28;20255;-59
2024/01/16 03:18:47;;;;;;;1.13;0.90;;;;;;;-2.91;68.43;98597.78;5073754;28;20251;-60
2024/01/16 03:21:15;;;;;;;1.30;0.93;;;;;;;-2.95;68.70;98599.41;5072781;28;20669;-60
2024/01/16 03:23:44;;;;;;;0.87;0.73;;;;;;;-2.97;68.92;98610.28;5073748;28;20190;-59
2024/01/16 03:26:14;;;;;;;1.47;1.07;;;;;;;-3.05;67.98;98600.06;5070222;28;20223;-60
2024/01/16 03:28:42;;;;;;;1.83;0.90;;;;;;;-3.09;69.00;98607.50;5070431;28;20631;-63
2024/01/16 03:31:10;;;;;;;0.80;0.80;;;;;;;-3.08;68.79;98612.59;5073914;28;20660;-60
2024/01/16 03:33:42;;;;;;;1.90;1.10;;;;;;;-3.15;69.15;98618.34;5073596;28;20252;-60
2024/01/16 03:36:12;;;;;;;1.53;1.00;;;;;;;-3.18;69.08;98621.63;5070536;28;20197;-58
2024/01/16 03:38:41;;;;;;;1.10;0.70;;;;;;;-3.24;69.00;98628.22;5065738;28;20214;-61
2024/01/16 03:41:09;;;;;;;2.30;1.20;;;;;;;-3.25;69.37;98634.06;5073408;28;20654;-59
2024/01/16 03:43:37;;;;;;;2.10;0.70;;;;;;;-3.27;69.05;98636.56;5073844;28;20299;-58
2024/01/16 03:46:05;;;;;;;0.83;0.70;;;;;;;-3.29;69.47;98634.84;5072247;28;20621;-62
2024/01/16 03:48:33;;;;;;;2.50;1.00;;;;;;;-3.33;69.05;98636.44;5071931;28;20745;-64
2024/01/16 03:51:02;;;;;;;0.80;0.80;;;;;;;-3.36;68.81;98641.41;5071412;28;20241;-59
2024/01/16 03:53:30;;;;;;;0.73;0.73;;;;;;;-3.39;69.45;98648.88;5071722;28;20235;-59
2024/01/16 03:55:58;;;;;;;0.90;0.80;;;;;;;-3.41;69.03;98653.91;5073480;28;20247;-58
2024/01/16 03:58:26;;;;;;;0.80;0.60;;;;;;;-3.46;69.27;98660.53;5072044;28;20206;-59
2024/01/16 04:00:54;;;;;;;2.63;1.17;;;;;;;-3.52;68.73;98664.56;5073423;28;20215;-60
2024/01/16 04:03:22;;;;;;;0.83;0.70;;;;;;;-3.56;68.93;98680.41;5072693;28;20213;-60
2024/01/16 04:05:50;;;;;;;1.60;0.80;;;;;;;-3.60;68.82;98683.69;5073030;28;20213;-59
2024/01/16 04:08:20;;;;;;;2.30;0.97;;;;;;;-3.62;69.28;98692.84;5069580;28;20197;-62
2024/01/16 04:10:48;;;;;;;1.13;0.70;;;;;;;-3.64;69.51;98687.81;5070961;28;20308;-59
2024/01/16 04:13:16;;;;;;;1.63;0.80;;;;;;;-3.65;69.11;98699.50;5072977;28;20378;-58
2024/01/16 04:15:44;;;;;;;0.77;0.77;;;;;;;-3.69;69.36;98706.97;5072580;28;20205;-59
2024/01/16 04:18:11;;;;;;;0.70;0.70;;;;;;;-3.70;69.56;98710.31;5072567;28;20201;-59
2024/01/16 04:20:40;;;;;;;1.33;0.77;;;;;;;-3.75;69.37;98710.19;5072550;28;20288;-60
2024/01/16 04:23:08;;;;;;;1.43;0.83;;;;;;;-3.78;69.32;98711.78;5072343;28;20578;-58
2024/01/16 04:25:38;;;;;;;2.03;0.53;;;;;;;-3.80;69.33;98723.47;5070796;28;20720;-59
2024/01/16 04:28:06;;;;;;;1.20;0.93;;;;;;;-3.82;68.94;98725.13;5069252;28;20209;-65
2024/01/16 04:30:33;;;;;;;2.93;0.80;;;;;;;-3.85;68.78;98730.06;5071102;28;20204;-61
2024/01/16 04:33:01;;;;;;;1.57;0.60;;;;;;;-3.85;68.79;98730.06;5072505;28;20292;-60
2024/01/16 04:35:29;;;;;;;1.00;0.60;;;;;;;-3.90;68.35;98735.00;5072078;28;20223;-60
2024/01/16 04:37:57;;;;;;;1.50;0.80;;;;;;;-3.92;68.84;98734.94;5072601;28;20205;-59
2024/01/16 04:40:25;;;;;;;1.63;0.70;;;;;;;-3.98;68.29;98742.31;5072192;28;20205;-60
2024/01/16 04:42:54;;;;;;;0.60;0.60;;;;;;;-4.02;68.25;98748.09;5068107;28;20878;-59
2024/01/16 04:45:23;;;;;;;1.53;0.80;;;;;;;-4.01;68.30;98761.56;5068595;28;20233;-58
2024/01/16 04:47:51;;;;;;;0.63;0.53;;;;;;;-4.04;68.65;98754.78;5072243;28;20201;-59
2024/01/16 04:50:19;;;;;;;1.43;0.73;;;;;;;-4.06;68.86;98763.94;5071904;28;20320;-64
2024/01/16 04:52:47;;;;;;;1.63;0.63;;;;;;;-4.07;69.43;98771.44;5069835;28;20699;-60
2024/01/16 04:55:17;;;;;;;0.90;0.60;;;;;;;-4.07;68.85;98769.78;5071826;28;20758;-60
2024/01/16 04:57:45;;;;;;;1.30;1.00;;;;;;;-4.09;69.24;98768.03;5067680;28;20229;-59
2024/01/16 05:00:15;;;;;;;2.40;0.80;;;;;;;-4.10;68.86;98768.84;5070707;28;20205;-59
2024/01/16 05:02:43;;;;;;;2.47;1.10;;;;;;;-4.13;69.72;98762.91;5069752;28;20205;-59
2024/01/16 05:05:11;;;;;;;0.80;0.73;;;;;;;-4.12;69.92;98761.28;5068204;28;20201;-59
2024/01/16 05:07:39;;;;;;;1.60;0.80;;;;;;;-4.12;69.51;98786.41;5071786;28;20208;-59
2024/01/16 05:10:10;;;;;;;1.23;0.60;;;;;;;-4.11;69.59;98799.84;5071219;28;20247;-60
2024/01/16 05:12:38;;;;;;;0.90;0.70;;;;;;;-4.13;69.86;98795.59;5071588;28;20208;-60
2024/01/16 05:15:07;;;;;;;2.00;0.97;;;;;;;-4.13;69.38;98792.25;5070913;28;20240;-60
2024/01/16 05:17:37;;;;;;;2.40;0.70;;;;;;;-4.14;69.76;98793.06;5067984;28;20209;-60
2024/01/16 05:20:07;;;;;;;1.10;0.67;;;;;;;-4.15;69.78;98799.75;5071233;28;20268;-61
2024/01/16 05:22:35;;;;;;;2.00;0.83;;;;;;;-4.14;69.60;98813.19;5068611;28;20243;-59
2024/01/16 05:25:03;;;;;;;0.90;0.43;;;;;;;-4.13;69.72;98814.88;5071474;28;20223;-58
2024/01/16 05:27:31;;;;;;;0.97;0.87;;;;;;;-4.14;69.25;98824.09;5065385;28;20290;-60
2024/01/16 05:30:00;;;;;;;0.80;0.77;;;;;;;-4.13;69.66;98824.94;5065428;28;20201;-58
2024/01/16 05:32:28;;;;;;;1.17;0.70;;;;;;;-4.11;69.90;98825.84;5069374;28;20198;-60
2024/01/16 05:34:57;;;;;;;1.10;0.87;;;;;;;-4.09;69.38;98836.78;5066008;28;20213;-61
2024/01/16 05:37:25;;;;;;;1.43;0.90;;;;;;;-4.10;69.62;98846.81;5071038;28;20205;-60
2024/01/16 05:39:53;;;;;;;1.83;1.00;;;;;;;-4.09;69.90;98851.88;5070498;28;20213;-58
2024/01/16 05:42:21;;;;;;;1.10;0.70;;;;;;;-4.09;69.43;98843.47;5068272;28;20201;-59
2024/01/16 05:44:49;;;;;;;1.80;1.00;;;;;;;-4.11;70.10;98855.19;5069223;28;20224;-62
2024/01/16 05:47:17;;;;;;;1.87;0.60;;;;;;;-4.15;70.15;98852.56;5069330;28;20205;-59
2024/01/16 05:49:45;;;;;;;1.90;0.63;;;;;;;-4.15;69.94;98866.81;5070729;28;20241;-57
2024/01/16 05:52:14;;;;;;;3.03;0.97;;;;;;;-4.18;69.54;98866.72;5070865;28;20194;-59
2024/01/16 05:54:42;;;;;;;1.83;0.90;;;;;;;-4.18;70.03;98874.28;5070915;28;20239;-60
2024/01/16 05:57:10;;;;;;;1.80;0.83;;;;;;;-4.18;70.65;98881.81;5069241;28;20209;-58
2024/01/16 05:59:38;;;;;;;1.17;0.80;;;;;;;-4.20;69.41;98878.38;5070316;28;20197;-61
2024/01/16 06:02:06;;;;;;;4.50;0.87;;;;;;;-4.22;69.83;98880.88;5067891;28;20296;-60
2024/01/16 06:04:34;;;;;;;3.33;0.90;;;;;;;-4.24;69.71;98886.66;5070962;28;20201;-59
2024/01/16 06:07:02;;;;;;;1.50;0.83;;;;;;;-4.25;69.30;98887.47;5071368;28;20671;-59
2024/01/16 06:09:32;;;;;;;2.07;0.83;;;;;;;-4.26;69.06;98891.66;5067381;28;20194;-60
2024/01/16 06:12:00;;;;;;;1.60;0.70;;;;;;;-4.25;69.28;98895.88;5070586;28;20228;-59
2024/01/16 06:14:28;;;;;;;1.80;0.90;;;;;;;-4.23;69.35;98903.47;5072495;28;20207;-60
2024/01/16 06:16:56;;;;;;;1.80;0.73;;;;;;;-4.21;69.21;98896.81;5065196;28;20215;-60
2024/01/16 06:19:24;;;;;;;3.57;1.10;;;;;;;-4.21;69.49;98906.88;5068283;28;20233;-61
2024/01/16 06:21:52;;;;;;;2.23;1.17;;;;;;;-4.23;69.15;98919.41;5067611;28;20232;-58
2024/01/16 06:24:20;;;;;;;2.13;0.80;;;;;;;-4.21;69.21;98924.47;5065852;28;20622;-58
2024/01/16 06:26:49;;;;;;;1.43;0.67;;;;;;;-4.22;69.55;98938.72;5061822;28;20597;-54
2024/01/16 06:29:17;;;;;;;0.80;0.80;;;;;;;-4.22;69.11;98926.16;5066175;28;20205;-56
2024/01/16 06:31:58;;;;;;;1.67;0.97;;;;;;;-4.22;68.97;98930.31;5065547;28;20250;-59
2024/01/16 06:34:26;;;;;;;1.77;0.80;;;;;;;-4.20;69.45;98934.59;5066956;28;20235;-59
2024/01/16 06:36:54;;;;;;;1.40;0.80;;;;;;;-4.18;68.89;98949.72;5070320;28;20217;-60
2024/01/16 06:39:22;;;;;;;1.07;0.73;;;;;;;-4.18;68.29;98948.06;5075543;28;20569;-58
2024/01/16 06:41:51;;;;;;;0.73;0.57;;;;;;;-4.18;68.30;98958.13;5075300;28;20668;-59
2024/01/16 06:44:19;;;;;;;1.07;0.67;;;;;;;-4.19;67.88;98961.44;5072928;28;20255;-59
2024/01/16 06:46:48;;;;;;;1.00;0.73;;;;;;;-4.26;68.71;98958.72;5075309;28;20201;-59
2024/01/16 06:49:16;;;;;;;2.20;1.10;;;;;;;-4.28;68.38;98957.78;5070990;28;20228;-59
2024/01/16 06:51:44;;;;;;;1.73;0.90;;;;;;;-4.28;68.47;98965.34;5072554;28;20201;-62
2024/01/16 06:54:12;;;;;;;1.90;0.80;;;;;;;-4.26;68.25;98968.78;5073293;28;20201;-62
2024/01/16 06:56:40;;;;;;;1.20;0.70;;;;;;;-4.27;68.37;98964.53;5072176;28;20237;-59
2024/01/16 06:59:09;;;;;;;1.90;0.70;;;;;;;-4.26;68.08;98979.69;5071742;28;20687;-65
2024/01/16 07:01:39;;;;;;;4.43;1.23;;;;;;;-4.26;67.99;98988.88;5072350;28;20204;-62
2024/01/16 07:04:06;;;;;;;1.00;0.70;;;;;;;-4.27;68.23;98989.66;5068464;28;20660;-59
2024/01/16 07:06:34;;;;;;;0.83;0.70;;;;;;;-4.26;68.07;98994.75;5074127;28;20819;-59
2024/01/16 07:09:05;;;;;;;1.53;0.60;;;;;;;-4.25;67.86;98998.13;5073979;28;20232;-59
2024/01/16 07:11:33;;;;;;;1.50;0.87;;;;;;;-4.22;67.56;99005.78;5070942;28;20205;-59
2024/01/16 07:14:01;;;;;;;3.27;1.13;;;;;;;-4.20;68.07;99010.03;5067555;28;20217;-57
2024/01/16 07:16:30;;;;;;;2.60;1.03;;;;;;;-4.18;68.35;99017.63;5070912;28;20218;-60
2024/01/16 07:18:58;;;;;;;3.73;0.80;;;;;;;-4.17;68.13;99019.31;5073590;28;20208;-61
2024/01/16 07:21:27;;;;;;;1.53;0.70;;;;;;;-4.18;67.38;99022.66;5073985;28;20201;-60
2024/01/16 07:23:55;;;;;;;2.37;0.90;;;;;;;-4.19;67.75;99029.34;5070782;28;20197;-60
2024/01/16 07:26:24;;;;;;;1.83;0.80;;;;;;;-4.17;68.23;99039.44;5060475;28;20198;-60
2024/01/16 07:28:52;;;;;;;1.30;0.73;;;;;;;-4.17;67.76;99037.78;5069085;28;20358;-58
2024/01/16 07:31:20;;;;;;;1.93;0.67;;;;;;;-4.19;67.30;99041.94;5071365;28;20217;-60
2024/01/16 07:33:49;;;;;;;3.17;0.90;;;;;;;-4.20;67.64;99046.88;5068648;28;20239;-59
2024/01/16 07:36:17;;;;;;;1.50;0.93;;;;;;;-4.25;67.87;99048.41;5071496;28;20210;-60
2024/01/16 07:38:45;;;;;;;2.30;0.80;;;;;;;-4.25;67.55;99055.97;5073585;28;20213;-60
2024/01/16 07:41:13;;;;;;;1.67;0.80;;;;;;;-4.30;67.21;99062.53;5069351;28;20241;-59
2024/01/16 07:43:41;;;;;;;1.60;0.90;;;;;;;-4.37;67.31;99062.31;5072218;28;20255;-58
2024/01/16 07:46:09;;;;;;;3.20;1.07;;;;;;;-4.40;67.62;99072.28;5061655;28;20193;-60
2024/01/16 07:48:37;;;;;;;1.50;0.80;;;;;;;-4.43;68.04;99076.34;5072452;28;20516;-59
2024/01/16 07:51:07;;;;;;;2.67;1.03;;;;;;;-4.44;67.97;99080.53;5072486;28;20208;-58
2024/01/16 07:53:34;;;;;;;1.40;0.67;;;;;;;-4.46;67.70;99087.16;5066840;28;20201;-59
2024/01/16 07:56:03;;;;;;;0.73;0.67;;;;;;;-4.44;67.84;99094.75;5067200;28;20747;-59
2024/01/16 07:58:30;;;;;;;1.90;0.90;;;;;;;-4.41;67.59;99095.72;5065639;28;20648;-58
2024/01/16 08:00:58;;;;;;;1.90;0.70;;;;;;;-4.42;67.67;99094.00;5070683;28;20233;-57
2024/01/16 08:03:26;;;;;;;3.33;0.80;;;;;;;-4.46;67.36;99092.19;5065278;28;20315;-58
2024/01/16 08:05:55;;;;;;;0.60;0.50;;;;;;;-4.46;66.68;99094.69;5068891;28;20243;-59
2024/01/16 08:08:24;;;;;;;1.67;0.80;;;;;;;-4.50;65.97;99099.56;5070118;28;20208;-58
2024/01/16 08:10:52;;;;;;;1.40;0.67;;;;;;;-4.56;66.89;99090.19;5066515;28;20205;-63
2024/01/16 08:13:20;;;;;;;1.97;1.00;;;;;;;-4.55;66.68;99104.47;5067036;28;20209;-57
2024/01/16 08:15:48;;;;;;;0.67;0.40;;;;;;;-4.54;66.41;99107.81;5066815;28;20205;-59
2024/01/16 08:18:17;;;;;;;1.70;0.60;;;;;;;-4.53;66.66;99110.38;5066942;28;20208;-61
2024/01/16 08:20:45;;;;;;;1.83;0.70;;;;;;;-4.52;66.61;99108.75;5064139;28;20201;-59
2024/01/16 08:23:13;;;;;;;1.27;0.67;;;;;;;-4.52;66.85;99127.19;5067713;28;20670;-60
2024/01/16 08:25:43;;;;;;;1.50;0.83;;;;;;;-4.52;66.26;99111.25;5065704;28;20265;-57
2024/01/16 08:28:11;;;;;;;0.73;0.63;;;;;;;-4.52;66.20;99127.19;5066317;28;20259;-58
2024/01/16 08:30:39;;;;;;;2.40;0.80;;;;;;;-4.49;66.44;99123.91;5067394;28;20229;-58
2024/01/16 08:33:07;;;;;;;2.27;0.77;;;;;;;-4.50;66.16;99125.56;5077971;28;20206;-57
2024/01/16 08:35:35;;;;;;;1.30;0.83;;;;;;;-4.51;65.55;99141.47;5063098;28;20664;-59
2024/01/16 08:38:04;;;;;;;1.73;0.57;;;;;;;-4.50;66.13;99139.78;5071512;28;20220;-58
2024/01/16 08:40:32;;;;;;;1.10;0.60;;;;;;;-4.49;66.11;99137.34;5070670;28;20251;-58
2024/01/16 08:43:01;;;;;;;1.53;0.77;;;;;;;-4.47;65.43;99139.91;5070554;28;20209;-59
2024/01/16 08:45:29;;;;;;;2.43;0.70;;;;;;;-4.45;66.25;99145.84;5071792;28;20729;-62
2024/01/16 08:47:58;;;;;;;3.50;0.87;;;;;;;-4.43;65.92;99157.66;5069500;28;20247;-56
2024/01/16 08:50:26;;;;;;;1.07;0.70;;;;;;;-4.42;66.03;99153.47;5066649;28;20232;-57
2024/01/16 08:52:54;;;;;;;0.97;0.70;;;;;;;-4.43;65.39;99171.88;5064133;28;20205;-55
2024/01/16 08:55:22;;;;;;;2.97;0.83;;;;;;;-4.40;65.64;99172.84;5065503;28;20205;-55
2024/01/16 08:57:50;;;;;;;1.43;0.70;;;;;;;-4.40;64.88;99165.31;5070251;28;20223;-57
2024/01/16 09:00:19;;;;;;;0.97;0.70;;;;;;;-4.37;65.25;99174.63;5061566;28;20572;-56
2024/01/16 09:02:48;;;;;;;0.87;0.73;;;;;;;-4.40;64.69;99177.88;5065117;28;20205;-54
2024/01/16 09:05:16;;;;;;;0.90;0.77;;;;;;;-4.35;64.69;99178.00;5071128;28;20208;-63
2024/01/16 09:07:44;;;;;;;1.23;0.60;;;;;;;-4.33;64.12;99181.44;5071624;28;20197;-58
2024/01/16 09:10:13;;;;;;;2.47;0.87;;;;;;;-4.34;63.79;99183.91;5066583;28;20205;-52
2024/01/16 09:12:40;;;;;;;1.00;0.70;;;;;;;-4.32;63.55;99189.84;5070427;28;20664;-58
2024/01/16 09:15:10;;;;;;;2.23;0.67;;;;;;;-4.28;63.35;99191.66;5070466;28;20821;-57
2024/01/16 09:17:39;;;;;;;0.80;0.50;;;;;;;-4.29;63.21;99188.28;5062514;28;20681;-59
2024/01/16 09:20:09;;;;;;;0.90;0.70;;;;;;;-4.26;63.26;99185.03;5070105;28;20639;-62
2024/01/16 09:22:37;;;;;;;0.70;0.67;;;;;;;-4.22;63.25;99192.72;5063842;28;20221;-59
2024/01/16 09:25:06;;;;;;;1.17;0.50;;;;;;;-4.20;63.22;99196.16;5066082;28;20248;-62
2024/01/16 09:27:34;;;;;;;1.37;0.67;;;;;;;-4.21;62.80;99183.50;5065357;28;20197;-61
2024/01/16 09:30:02;;;;;;;1.17;0.60;;;;;;;-4.20;62.77;99193.66;5065891;28;20201;-61
2024/01/16 09:32:30;;;;;;;1.47;0.70;;;;;;;-4.21;62.68;99194.44;5061167;28;20652;-62
2024/01/16 09:35:02;;;;;;;1.33;0.70;;;;;;;-4.17;62.76;99198.75;5060499;28;20198;-62
2024/01/16 09:37:30;;;;;;;1.30;0.63;;;;;;;-4.16;62.11;99199.59;5065169;28;20227;-61
2024/01/16 09:39:58;;;;;;;1.87;0.70;;;;;;;-4.15;61.21;99198.81;5068420;28;20205;-62
2024/01/16 09:42:27;;;;;;;1.10;0.67;;;;;;;-4.15;62.04;99213.91;5059606;28;20206;-63
2024/01/16 09:44:56;;;;;;;1.63;0.50;;;;;;;-4.14;62.38;99203.88;5067135;28;20210;-61
2024/01/16 09:47:28;;;;;;;1.00;0.60;;;;;;;-4.11;61.60;99210.69;5060061;28;20559;-64
2024/01/16 09:49:58;;;;;;;0.97;0.87;;;;;;;-4.07;61.62;99212.50;5064721;28;20833;-65
2024/01/16 09:52:27;;;;;;;0.93;0.60;;;;;;;-4.05;61.11;99223.47;5061367;28;20703;-63
2024/01/16 09:54:55;;;;;;;0.77;0.50;;;;;;;-4.03;60.91;99226.88;5065390;28;20197;-62
2024/01/16 09:57:26;;;;;;;1.17;0.63;;;;;;;-4.03;61.33;99229.41;5060549;28;20239;-64
2024/01/16 09:59:55;;;;;;;1.83;0.70;;;;;;;-4.00;60.45;99231.19;5069670;28;20216;-62
2024/01/16 10:02:24;;;;;;;0.40;0.40;;;;;;;-3.99;61.13;99230.38;5064726;28;20215;-62
2024/01/16 10:04:53;;;;;;;3.40;0.50;;;;;;;-3.97;60.13;99232.13;5068676;28;20255;-61
2024/01/16 10:07:25;;;;;;;0.97;0.50;;;;;;;-3.96;60.56;99241.38;5070057;28;20221;-62
2024/01/16 10:09:57;;;;;;;1.63;0.50;;;;;;;-3.93;60.48;99241.50;5064009;28;20278;-61
2024/01/16 10:12:26;;;;;;;0.30;0.30;;;;;;;-3.93;60.68;99238.97;5066185;28;20653;-63
2024/01/16 10:14:55;;;;;;;2.30;0.93;;;;;;;-3.89;60.37;99242.44;5068452;28;20205;-66
2024/01/16 10:17:23;;;;;;;0.63;0.40;;;;;;;-3.82;60.40;99244.38;5058315;28;20754;-65
2024/01/16 10:19:52;;;;;;;0.87;0.50;;;;;;;-3.77;60.92;99255.41;5057275;28;20214;-64
2024/01/16 10:22:22;;;;;;;1.80;0.50;;;;;;;-3.73;59.85;99249.69;5061156;28;20201;-61
2024/01/16 10:25:05;;;;;;;2.20;0.60;;;;;;;-3.78;59.12;99246.16;5069814;28;20212;-65
2024/01/16 10:27:33;;;;;;;2.10;0.47;;;;;;;-3.75;59.28;99256.34;5059978;28;20197;-63
2024/01/16 10:30:02;;;;;;;1.03;0.50;;;;;;;-3.73;59.82;99266.44;5065779;28;20220;-58
2024/01/16 10:32:32;;;;;;;0.67;0.63;;;;;;;-3.70;59.91;99274.09;5062130;28;20205;-58
2024/01/16 10:35:08;;;;;;;1.30;0.50;;;;;;;-3.74;59.82;99263.06;5064215;28;20193;-59
2024/01/16 10:37:44;;;;;;;0.50;0.40;;;;;;;-3.71;59.60;99269.88;5066039;28;20213;-61
2024/01/16 10:40:16;;;;;;;2.10;0.50;;;;;;;-3.71;58.04;99262.34;5065674;28;20662;-60
2024/01/16 10:42:46;;;;;;;0.47;0.47;;;;;;;-3.63;59.38;99275.16;5062546;28;20227;-59
2024/01/16 10:45:19;;;;;;;0.87;0.50;;;;;;;-3.57;59.23;99276.22;5062241;28;20559;-56
2024/01/16 10:47:47;;;;;;;1.10;0.50;;;;;;;-3.53;59.00;99278.03;5067087;28;20245;-58
2024/01/16 10:50:16;;;;;;;0.60;0.53;;;;;;;-3.47;58.65;99283.25;5068012;28;20233;-62
2024/01/16 10:52:48;;;;;;;0.87;0.50;;;;;;;-3.44;58.57;99282.50;5062825;28;20565;-64
2024/01/16 10:55:22;;;;;;;0.97;0.40;;;;;;;-3.40;58.77;99284.31;5056393;28;20206;-64
2024/01/16 10:57:51;;;;;;;2.27;0.50;;;;;;;-3.36;58.67;99282.72;5064021;28;20247;-64
2024/01/16 11:00:21;;;;;;;1.00;0.50;;;;;;;-3.34;58.28;99289.53;5064864;28;20549;-58
2024/01/16 11:02:52;;;;;;;0.50;0.50;;;;;;;-3.35;57.18;99289.47;5066232;28;20201;-65
2024/01/16 11:05:22;;;;;;;0.43;0.40;;;;;;;-3.38;57.26;99287.72;5067553;28;20687;-65
2024/01/16 11:07:56;;;;;;;1.17;0.50;;;;;;;-3.35;58.16;99286.94;5066107;28;20292;-66
2024/01/16 11:10:27;;;;;;;0.70;0.50;;;;;;;-3.30;58.49;99285.47;5069236;28;20228;-61
2024/01/16 11:13:00;;;;;;;5.30;2.60;;;;;;;-3.26;57.77;99292.28;5064612;28;20204;-64
2024/01/16 11:15:29;;;;;;;1.10;0.57;;;;;;;-3.23;59.01;99288.22;5069235;28;20205;-65
2024/01/16 11:17:57;;;;;;;1.53;0.30;;;;;;;-3.25;58.33;99278.88;5064187;28;20241;-61
2024/01/16 11:20:26;;;;;;;0.90;0.50;;;;;;;-3.20;58.51;99298.38;5071329;28;20204;-64
2024/01/16 11:23:15;;;;;;;3.40;1.90;;;;;;;-3.18;58.56;99300.94;5070834;28;20220;-61
2024/01/16 11:25:44;;;;;;;3.47;1.37;;;;;;;-3.15;60.35;99301.03;5073749;28;20263;-63
2024/01/16 11:28:13;;;;;;;0.67;0.50;;;;;;;-3.13;58.72;99294.38;5072110;28;20281;-62
2024/01/16 11:30:43;;;;;;;1.00;0.60;;;;;;;-3.11;58.17;99302.00;5061416;28;20673;-63
2024/01/16 11:33:45;;;;;;;6.83;2.10;;;;;;;-3.08;59.48;99305.47;5063130;28;20231;-63
2024/01/16 11:36:43;;;;;;;4.13;2.50;;;;;;;-3.05;60.75;99313.13;5065387;28;20205;-64
2024/01/16 11:39:18;;;;;;;6.07;2.50;;;;;;;-3.08;62.03;99318.06;5073559;28;20220;-61
2024/01/16 11:41:52;;;;;;;5.47;2.70;;;;;;;-3.07;62.21;99304.66;5072495;28;20205;-63